Branson, Colorado
Current Conditions -  °F | °C
As of 9:54 PM on Saturday 20 Dec 2014 (Local Time) from KTAD Reporting Station
Clear Clear  
Wind Chill: 30°   Ceiling: Unl
Heat Index: 36°   Visibility: 10mi
Dew Point: 19°   Wind: 8mph
Humidity: 50%   Direction: 300°WNW
Pressure: 29.93"   Gusts: NA
Location:  37.02°N, 103.88°W
Report Text: KTAD 210454Z AUTO 30007KT 10SM CLR 02/M07 A2993 RMK AO2 SLP129 T00221072
Loading
Personal Weather Stations






























Interactive Weather Map New forecast layout! Learn more

10-Day Weather Forecast

Advertisements
Track Severe Weather on mobile